LBSF/SOF METAR and TAF weather

Enter ICAO airport designator
Station Type Date Time Source
LBSF METAR 2019/08/19 22:30 UTC NOAA

LBSF 192230Z 14004KT CAVOK 19/11 Q1021 NOSIG


Station Type Date Time Source
LBSF Decoded METAR 2019/08/19 22:30 UTC NOAA

Sofia Observ. , Bulgaria (LBSF) 42-39N 023-23E 595M
Aug 19, 2019 - 06:30 PM EDT / 2019.08.19 2230 UTC
Wind: from the SE (140 degrees) at 5 MPH (4 KT):0
Visibility: greater than 7 mile(s):0
Temperature: 66 F (19 C)
Dew Point: 51 F (11 C)
Relative Humidity: 59%
Pressure (altimeter): 30.15 in. Hg (1021 hPa)
ob: LBSF 192230Z 14004KT CAVOK 19/11 Q1021 NOSIG
cycle: 22

Station Type Date Time Source
LBSF TAF 2019/08/19 18:18 UTC NOAA

TAF LBSF 191700Z 1918/2018 04010KT CAVOK
BECMG 1919/1921 VRB04KT
BECMG 2009/2011 09010KT

Example: see airport list